Ocean City, Washington
Current Conditions -  °F | °C
As of 2:53 PM on Saturday 20 Dec 2014 (Local Time) from KHQM Reporting Station
Moderate Rain Moderate Rain  
Wind Chill: 54°   Ceiling: 800
Heat Index: 54°   Visibility: 1.2mi
Dew Point: 54°   Wind: 26mph
Humidity: 100%   Direction: 200°SSW
Pressure: 29.47"   Gusts: 35mph
Location:  46.9704°N, 124.153°W
Report Text: KHQM 202253Z AUTO 20023G30KT 1 1/4SM RA BR OVC008 12/12 A2947 RMK AO2 PK WND 20030/2244 RAB2154 SLP982 P0008 T01220122
Loading
Personal Weather Stations






























Interactive Weather Map New forecast layout! Learn more

10-Day Weather Forecast

Advertisements
Track Severe Weather on mobile